createdAt,value
2023-03-15T00:01:39.627Z,3.66
2023-03-15T00:04:09.010Z,3.62
2023-03-15T00:06:38.379Z,3.64
2023-03-15T00:09:07.977Z,3.67
2023-03-15T00:11:37.292Z,3.68
2023-03-15T00:14:07.295Z,3.69
2023-03-15T00:16:37.663Z,3.72
2023-03-15T00:19:07.324Z,3.76
2023-03-15T00:21:37.036Z,3.74
2023-03-15T00:24:08.047Z,3.68
2023-03-15T00:26:37.967Z,3.68
2023-03-15T00:29:07.485Z,3.64
2023-03-15T00:31:36.851Z,3.64
2023-03-15T00:34:06.244Z,3.64
2023-03-15T00:36:35.581Z,3.67
2023-03-15T00:39:05.258Z,3.64
2023-03-15T00:41:35.623Z,3.65
2023-03-15T00:44:05.616Z,3.64
2023-03-15T00:46:35.249Z,3.64
2023-03-15T00:49:04.700Z,3.65
2023-03-15T00:51:34.480Z,3.65
2023-03-15T00:54:04.083Z,3.62
2023-03-15T00:56:33.365Z,3.57
2023-03-15T00:59:03.855Z,3.57
2023-03-15T01:01:33.301Z,3.61
2023-03-15T01:04:02.624Z,3.62
2023-03-15T01:06:32.010Z,3.57
2023-03-15T01:09:02.154Z,3.54
2023-03-15T01:11:31.795Z,3.57
2023-03-15T01:14:03.022Z,3.58
2023-03-15T01:16:33.693Z,3.55
2023-03-15T01:19:03.086Z,3.53
2023-03-15T01:21:32.677Z,3.48
2023-03-15T01:24:02.093Z,3.47
2023-03-15T01:26:31.814Z,3.42
2023-03-15T01:29:01.105Z,3.40
2023-03-15T01:31:31.243Z,3.37
2023-03-15T01:34:01.198Z,3.36
2023-03-15T01:36:33.668Z,3.33
2023-03-15T01:39:03.022Z,3.29
2023-03-15T01:41:44.324Z,3.28
2023-03-15T01:44:15.411Z,3.28
2023-03-15T01:46:45.620Z,3.28
2023-03-15T01:49:25.544Z,3.25
2023-03-15T01:51:59.649Z,3.24
2023-03-15T01:54:41.695Z,3.21
2023-03-15T01:57:16.490Z,3.20
2023-03-15T01:59:50.567Z,3.15
2023-03-15T02:02:22.131Z,3.15
2023-03-15T02:04:57.819Z,3.16
2023-03-15T02:07:30.314Z,3.15
2023-03-15T02:10:03.692Z,3.13
2023-03-15T02:12:38.421Z,3.14
2023-03-15T02:15:10.971Z,3.09
2023-03-15T02:17:42.890Z,3.09
2023-03-15T02:20:27.914Z,3.12
2023-03-15T02:23:00.450Z,3.11
2023-03-15T02:25:40.960Z,3.12
2023-03-15T02:28:13.155Z,3.10
2023-03-15T02:30:44.721Z,3.07
2023-03-15T02:33:19.304Z,3.05
2023-03-15T02:35:48.699Z,2.99
2023-03-15T02:38:18.746Z,2.94
2023-03-15T02:40:48.841Z,2.93
2023-03-15T02:43:20.530Z,2.91
2023-03-15T02:45:51.084Z,2.86
2023-03-15T02:48:21.328Z,2.83
2023-03-15T02:50:51.325Z,2.80
2023-03-15T02:53:20.662Z,2.77
2023-03-15T02:55:51.308Z,2.74
2023-03-15T02:58:20.733Z,2.70
2023-03-15T03:00:52.436Z,2.70
2023-03-15T03:03:21.670Z,2.70
2023-03-15T03:05:51.094Z,2.67
2023-03-15T03:08:20.467Z,2.59
2023-03-15T03:10:50.010Z,2.57
2023-03-15T03:13:19.537Z,2.57
2023-03-15T03:15:57.950Z,2.54
2023-03-15T03:18:29.926Z,2.49
2023-03-15T03:20:59.926Z,2.50
2023-03-15T03:23:30.142Z,2.48
2023-03-15T03:26:00.786Z,2.47
2023-03-15T03:28:32.609Z,2.48
2023-03-15T03:31:02.730Z,2.50
2023-03-15T03:33:33.030Z,2.56
2023-03-15T03:36:03.882Z,2.59
2023-03-15T03:38:33.296Z,2.59
2023-03-15T03:41:03.519Z,2.59
2023-03-15T03:43:33.506Z,2.60
2023-03-15T03:46:03.206Z,2.60
2023-03-15T03:48:34.334Z,2.61
2023-03-15T03:51:03.917Z,2.59
2023-03-15T03:53:33.353Z,2.56
2023-03-15T03:56:06.044Z,2.55
2023-03-15T03:58:36.770Z,2.58
2023-03-15T04:01:14.161Z,2.58
2023-03-15T04:03:43.590Z,2.59
2023-03-15T04:06:18.474Z,2.58
2023-03-15T04:08:49.345Z,2.57
2023-03-15T04:11:39.111Z,2.60
2023-03-15T04:14:10.111Z,2.62
2023-03-15T04:16:40.001Z,2.61
2023-03-15T04:19:13.086Z,2.60
2023-03-15T04:21:46.621Z,2.58
2023-03-15T04:24:39.461Z,2.56
2023-03-15T04:27:14.051Z,2.53
2023-03-15T04:29:58.136Z,2.52
2023-03-15T04:32:46.123Z,2.52
2023-03-15T04:35:33.008Z,2.52
2023-03-15T04:38:26.074Z,2.52
2023-03-15T04:41:16.324Z,2.50
2023-03-15T04:44:05.264Z,2.47
2023-03-15T04:47:07.643Z,2.41
2023-03-15T04:50:00.336Z,2.37
2023-03-15T04:52:52.500Z,2.33
2023-03-15T04:55:37.606Z,2.29
2023-03-15T04:58:25.689Z,2.25
2023-03-15T05:01:18.620Z,2.20
2023-03-15T05:04:17.448Z,2.18
2023-03-15T05:06:56.499Z,2.17
2023-03-15T05:09:49.125Z,2.15
2023-03-15T05:12:37.031Z,2.09
2023-03-15T05:15:18.833Z,2.07
2023-03-15T05:18:17.580Z,2.04
2023-03-15T05:21:16.316Z,2.02
2023-03-15T05:24:09.095Z,2.02
2023-03-15T05:26:58.704Z,1.97
2023-03-15T05:29:43.388Z,2.00
2023-03-15T05:32:34.024Z,2.01
2023-03-15T05:35:26.146Z,2.01
2023-03-15T05:38:31.365Z,2.02
2023-03-15T05:41:01.381Z,2.02
2023-03-15T05:43:46.195Z,2.01
2023-03-15T05:46:38.426Z,2.01
2023-03-15T05:49:13.961Z,2.00
2023-03-15T05:52:06.837Z,2.03
2023-03-15T05:54:40.264Z,2.07
2023-03-15T05:57:48.050Z,2.09
2023-03-15T06:00:43.807Z,2.15
2023-03-15T06:03:19.691Z,2.14
2023-03-15T06:05:54.300Z,2.13
2023-03-15T06:08:31.317Z,2.18
2023-03-15T06:11:00.751Z,2.22
2023-03-15T06:13:30.165Z,2.25
2023-03-15T06:16:00.462Z,2.27
2023-03-15T06:18:30.533Z,2.30
2023-03-15T06:21:01.431Z,2.26
2023-03-15T06:23:30.754Z,2.26
2023-03-15T06:26:00.295Z,2.29
2023-03-15T06:28:31.258Z,2.29
2023-03-15T06:31:08.576Z,2.33
2023-03-15T06:33:41.949Z,2.39
2023-03-15T06:36:13.717Z,2.45
2023-03-15T06:38:43.407Z,2.50
2023-03-15T06:41:14.840Z,2.58
2023-03-15T06:43:44.311Z,2.62
2023-03-15T06:46:14.310Z,2.63
2023-03-15T06:48:43.967Z,2.69
2023-03-15T06:51:14.008Z,2.78
2023-03-15T06:53:43.932Z,2.84
2023-03-15T06:56:13.238Z,2.89
2023-03-15T06:58:42.548Z,2.93
2023-03-15T07:01:13.919Z,3.01
2023-03-15T07:03:43.579Z,3.05
2023-03-15T07:06:12.925Z,3.06
2023-03-15T07:08:42.246Z,3.05
2023-03-15T07:11:11.564Z,3.06
2023-03-15T07:13:41.173Z,3.09
2023-03-15T07:16:11.354Z,3.12
2023-03-15T07:18:40.609Z,3.17
2023-03-15T07:21:09.914Z,3.24
2023-03-15T07:23:39.180Z,3.31
2023-03-15T07:26:08.517Z,3.36
2023-03-15T07:28:37.934Z,3.39
2023-03-15T07:31:07.578Z,3.41
2023-03-15T07:33:37.667Z,3.45
2023-03-15T07:36:08.437Z,3.48
2023-03-15T07:38:38.549Z,3.52
2023-03-15T07:41:08.404Z,3.51
2023-03-15T07:43:40.337Z,3.53
2023-03-15T07:46:27.869Z,3.55
2023-03-15T07:48:57.144Z,3.60
2023-03-15T07:51:26.594Z,3.62
2023-03-15T07:53:55.847Z,3.63
2023-03-15T07:56:25.124Z,3.67
2023-03-15T07:58:54.410Z,3.68
2023-03-15T08:01:23.702Z,3.70
2023-03-15T08:03:53.078Z,3.72
2023-03-15T08:06:22.798Z,3.76
2023-03-15T08:08:52.116Z,3.77
2023-03-15T08:11:21.420Z,3.82
2023-03-15T08:13:50.693Z,3.89
2023-03-15T08:16:19.974Z,3.95
2023-03-15T08:18:49.226Z,3.95
2023-03-15T08:21:18.522Z,3.95
2023-03-15T08:23:48.197Z,3.92
2023-03-15T08:26:19.119Z,3.88
2023-03-15T08:28:48.387Z,3.90
2023-03-15T08:31:17.719Z,3.92
2023-03-15T08:33:47.913Z,3.89
2023-03-15T08:36:17.395Z,3.78
2023-03-15T08:38:46.767Z,3.70
2023-03-15T08:41:16.045Z,3.78
2023-03-15T08:43:45.371Z,3.81
2023-03-15T08:46:14.962Z,3.80
2023-03-15T08:48:44.299Z,3.80
2023-03-15T08:51:14.301Z,3.77
2023-03-15T08:53:43.599Z,3.78
2023-03-15T08:56:13.104Z,3.83
2023-03-15T08:58:42.448Z,3.96
2023-03-15T09:01:13.515Z,4.03
2023-03-15T09:03:43.571Z,4.09
2023-03-15T09:06:13.078Z,4.10
2023-03-15T09:08:42.389Z,4.04
2023-03-15T09:11:11.762Z,4.04
2023-03-15T09:13:41.337Z,4.06
2023-03-15T09:16:10.638Z,4.07
2023-03-15T09:18:40.968Z,4.10
2023-03-15T09:21:10.695Z,4.15
2023-03-15T09:23:40.043Z,4.16
2023-03-15T09:26:09.417Z,4.17
2023-03-15T09:28:38.728Z,4.19
2023-03-15T09:31:08.446Z,4.17
2023-03-15T09:33:37.838Z,4.15
2023-03-15T09:36:07.817Z,4.12
2023-03-15T09:38:37.150Z,4.11
2023-03-15T09:41:06.804Z,4.14
2023-03-15T09:43:57.944Z,4.13
2023-03-15T09:46:33.194Z,4.04
2023-03-15T09:49:09.634Z,3.93
2023-03-15T09:51:47.449Z,3.97
2023-03-15T09:54:20.843Z,3.97
2023-03-15T09:56:56.732Z,3.99
2023-03-15T09:59:30.627Z,4.01
2023-03-15T10:02:15.015Z,3.99
2023-03-15T10:04:47.156Z,4.05
2023-03-15T10:07:16.945Z,4.12
2023-03-15T10:09:47.024Z,4.18
2023-03-15T10:12:23.577Z,4.20
2023-03-15T10:15:23.714Z,4.22
2023-03-15T10:18:14.848Z,4.27
2023-03-15T10:20:53.733Z,4.28
2023-03-15T10:23:28.914Z,4.33
2023-03-15T10:25:58.556Z,4.36
2023-03-15T10:28:33.863Z,4.43
2023-03-15T10:31:21.541Z,4.51
2023-03-15T10:33:56.917Z,4.55
2023-03-15T10:36:26.554Z,4.53
2023-03-15T10:38:57.389Z,4.51
2023-03-15T10:41:36.592Z,4.57
2023-03-15T10:44:07.887Z,4.62
2023-03-15T10:46:37.225Z,4.66
2023-03-15T10:49:12.203Z,4.69
2023-03-15T10:51:44.936Z,4.71
2023-03-15T10:54:16.940Z,4.68
2023-03-15T10:56:48.622Z,4.72
2023-03-15T10:59:20.119Z,4.74
2023-03-15T11:01:51.529Z,4.76
2023-03-15T11:04:22.710Z,4.81
2023-03-15T11:07:02.692Z,4.79
2023-03-15T11:09:40.659Z,4.77
2023-03-15T11:12:18.270Z,4.83
2023-03-15T11:14:50.949Z,4.83
2023-03-15T11:17:22.834Z,4.83
2023-03-15T11:19:56.906Z,4.87
2023-03-15T11:22:26.315Z,4.95
2023-03-15T11:24:55.886Z,4.99
2023-03-15T11:27:26.276Z,4.91
2023-03-15T11:29:59.933Z,4.91
2023-03-15T11:32:32.016Z,4.93
2023-03-15T11:35:04.765Z,4.97
2023-03-15T11:37:39.167Z,4.99
2023-03-15T11:40:17.530Z,5.09
2023-03-15T11:42:54.266Z,5.13
2023-03-15T11:45:34.224Z,5.12
2023-03-15T11:48:28.767Z,5.17
2023-03-15T11:50:59.278Z,5.29
2023-03-15T11:53:34.265Z,5.38
2023-03-15T11:56:22.274Z,5.40
2023-03-15T11:59:06.554Z,5.45
2023-03-15T12:01:37.189Z,5.55
2023-03-15T12:04:42.610Z,5.60
2023-03-15T12:07:38.584Z,5.49
2023-03-15T12:10:33.740Z,5.38
2023-03-15T12:13:18.633Z,5.41
2023-03-15T12:15:50.997Z,5.50
2023-03-15T12:18:32.981Z,5.55
2023-03-15T12:21:18.229Z,5.58
2023-03-15T12:23:57.020Z,5.52
2023-03-15T12:26:41.109Z,5.46
2023-03-15T12:29:16.954Z,5.43
2023-03-15T12:32:04.135Z,5.52
2023-03-15T12:34:44.218Z,5.51
2023-03-15T12:37:19.045Z,5.47
2023-03-15T12:39:51.654Z,5.48
2023-03-15T12:43:08.864Z,5.51
2023-03-15T12:45:49.190Z,5.43
2023-03-15T12:48:23.817Z,5.45
2023-03-15T12:51:04.784Z,5.53
2023-03-15T12:53:44.773Z,5.54
2023-03-15T12:56:42.175Z,5.54
2023-03-15T12:59:27.199Z,5.49
2023-03-15T13:01:58.640Z,5.43
2023-03-15T13:04:29.901Z,5.35
2023-03-15T13:07:36.847Z,5.31
2023-03-15T13:10:31.403Z,5.31
2023-03-15T13:13:08.056Z,5.34
2023-03-15T13:15:43.141Z,5.43
2023-03-15T13:18:17.716Z,5.48
2023-03-15T13:20:57.626Z,5.49
2023-03-15T13:23:30.362Z,5.43
2023-03-15T13:26:32.701Z,5.45
2023-03-15T13:29:10.098Z,5.51
2023-03-15T13:31:39.638Z,5.57
2023-03-15T13:34:15.993Z,5.62
2023-03-15T13:36:47.652Z,5.65
2023-03-15T13:39:22.567Z,5.74
2023-03-15T13:41:58.447Z,5.77
2023-03-15T13:44:29.010Z,5.81
2023-03-15T13:46:59.675Z,5.85
2023-03-15T13:49:33.620Z,5.84
2023-03-15T13:52:14.255Z,5.84
2023-03-15T13:54:45.184Z,5.83
2023-03-15T13:57:16.709Z,5.84
2023-03-15T13:59:52.061Z,5.85
2023-03-15T14:02:25.069Z,5.87
2023-03-15T14:04:58.570Z,5.93
2023-03-15T14:07:33.068Z,5.94
2023-03-15T14:10:25.383Z,5.95
2023-03-15T14:12:55.824Z,5.91
2023-03-15T14:15:34.116Z,5.90
2023-03-15T14:18:16.515Z,5.89
2023-03-15T14:20:52.353Z,5.91
2023-03-15T14:23:25.299Z,5.94
2023-03-15T14:25:56.315Z,5.93
2023-03-15T14:28:25.707Z,5.93
2023-03-15T14:30:56.987Z,5.92
2023-03-15T14:33:32.317Z,5.96
2023-03-15T14:36:04.072Z,5.98
2023-03-15T14:38:35.461Z,5.97
2023-03-15T14:41:32.439Z,5.96
2023-03-15T14:44:02.886Z,5.89
2023-03-15T14:46:32.772Z,5.88
2023-03-15T14:49:02.612Z,5.89
2023-03-15T14:51:32.686Z,5.88
2023-03-15T14:54:02.116Z,5.92
2023-03-15T14:56:31.527Z,5.97
2023-03-15T14:59:03.339Z,6.00
2023-03-15T15:01:32.948Z,6.02
2023-03-15T15:04:04.219Z,6.02
2023-03-15T15:06:36.214Z,5.96
2023-03-15T15:09:06.321Z,5.85
2023-03-15T15:11:35.741Z,5.79
2023-03-15T15:14:12.124Z,5.71
2023-03-15T15:16:41.728Z,5.66
2023-03-15T15:19:12.125Z,5.64
2023-03-15T15:21:42.205Z,5.61
2023-03-15T15:24:17.099Z,5.56
2023-03-15T15:26:47.051Z,5.51
2023-03-15T15:29:17.824Z,5.48
2023-03-15T15:31:47.275Z,5.46
2023-03-15T15:34:16.659Z,5.39
2023-03-15T15:36:46.411Z,5.37
2023-03-15T15:39:21.286Z,5.35
2023-03-15T15:41:50.611Z,5.33
2023-03-15T15:44:21.584Z,5.36
2023-03-15T15:46:50.973Z,5.32
2023-03-15T15:49:20.494Z,5.30
2023-03-15T15:51:50.923Z,5.31
2023-03-15T15:54:22.904Z,5.31
2023-03-15T15:56:54.770Z,5.26
2023-03-15T15:59:25.026Z,5.22
2023-03-15T16:02:00.991Z,5.14
2023-03-15T16:04:32.362Z,5.09
2023-03-15T16:07:03.261Z,5.06
2023-03-15T16:09:35.443Z,5.04
2023-03-15T16:12:13.503Z,5.04
2023-03-15T16:14:43.073Z,5.03
2023-03-15T16:17:17.233Z,5.04
2023-03-15T16:19:46.574Z,5.05
2023-03-15T16:22:17.277Z,5.03
2023-03-15T16:24:50.357Z,5.00
2023-03-15T16:27:23.256Z,4.97
2023-03-15T16:29:55.187Z,4.94
2023-03-15T16:32:41.084Z,4.92
2023-03-15T16:35:14.782Z,4.90
2023-03-15T16:37:46.015Z,4.90
2023-03-15T16:40:21.830Z,4.88
2023-03-15T16:42:51.165Z,4.86
2023-03-15T16:45:21.354Z,4.87
2023-03-15T16:47:51.085Z,4.87
2023-03-15T16:50:20.876Z,4.86
2023-03-15T16:52:53.156Z,4.85
2023-03-15T16:55:26.444Z,4.83
2023-03-15T16:57:56.390Z,4.79
2023-03-15T17:00:26.500Z,4.74
2023-03-15T17:02:59.335Z,4.68
2023-03-15T17:05:31.661Z,4.64
2023-03-15T17:08:02.170Z,4.61
2023-03-15T17:10:32.932Z,4.56
2023-03-15T17:13:03.322Z,4.52
2023-03-15T17:15:33.159Z,4.47
2023-03-15T17:18:02.755Z,4.43
2023-03-15T17:20:33.669Z,4.41
2023-03-15T17:23:05.088Z,4.37
2023-03-15T17:25:35.351Z,4.33
2023-03-15T17:28:06.044Z,4.27
2023-03-15T17:30:37.992Z,4.23
2023-03-15T17:33:07.980Z,4.18
2023-03-15T17:35:41.606Z,4.15
2023-03-15T17:38:19.534Z,4.10
2023-03-15T17:40:49.990Z,4.04
2023-03-15T17:43:19.697Z,3.99
2023-03-15T17:45:49.087Z,3.86
2023-03-15T17:48:18.628Z,3.71
2023-03-15T17:50:48.587Z,3.57
2023-03-15T17:53:20.617Z,3.52
2023-03-15T17:55:53.076Z,3.49
2023-03-15T17:58:25.962Z,3.48
2023-03-15T18:00:56.065Z,3.46
2023-03-15T18:03:26.932Z,3.43
2023-03-15T18:05:57.159Z,3.38
2023-03-15T18:08:27.255Z,3.30
2023-03-15T18:10:57.951Z,3.28
2023-03-15T18:13:29.451Z,3.27
2023-03-15T18:15:59.495Z,3.25
2023-03-15T18:18:29.099Z,3.22
2023-03-15T18:20:58.907Z,3.21
2023-03-15T18:23:28.788Z,3.18
2023-03-15T18:25:59.077Z,3.14
2023-03-15T18:28:28.746Z,3.11
2023-03-15T18:30:58.304Z,3.06
2023-03-15T18:33:27.939Z,3.01
2023-03-15T18:35:57.421Z,2.96
2023-03-15T18:38:26.852Z,2.89
2023-03-15T18:40:56.945Z,2.84
2023-03-15T18:43:26.587Z,2.79
2023-03-15T18:45:56.306Z,2.75
2023-03-15T18:48:39.739Z,2.70
2023-03-15T18:51:12.167Z,2.63
2023-03-15T18:53:43.132Z,2.59
2023-03-15T18:56:18.741Z,2.56
2023-03-15T18:58:50.241Z,2.51
2023-03-15T19:01:22.315Z,2.49
2023-03-15T19:03:52.405Z,2.45
2023-03-15T19:06:22.381Z,2.41
2023-03-15T19:08:53.700Z,2.38
2023-03-15T19:11:24.673Z,2.33
2023-03-15T19:13:54.006Z,2.27
2023-03-15T19:16:24.007Z,2.23
2023-03-15T19:18:54.740Z,2.19
2023-03-15T19:21:25.759Z,2.17
2023-03-15T19:23:57.163Z,2.15
2023-03-15T19:26:27.585Z,2.11
2023-03-15T19:28:56.948Z,2.08
2023-03-15T19:31:26.428Z,2.04
2023-03-15T19:33:55.840Z,2.01
2023-03-15T19:36:25.478Z,1.95
2023-03-15T19:38:54.802Z,1.91
2023-03-15T19:41:24.167Z,1.88
2023-03-15T19:43:53.498Z,1.85
2023-03-15T19:46:22.960Z,1.83
2023-03-15T19:48:52.609Z,1.79
2023-03-15T19:51:22.105Z,1.77
2023-03-15T19:53:51.514Z,1.71
2023-03-15T19:56:21.111Z,1.66
2023-03-15T19:58:50.764Z,1.64
2023-03-15T20:01:20.129Z,1.62
2023-03-15T20:03:49.551Z,1.57
2023-03-15T20:06:18.896Z,1.53
2023-03-15T20:08:48.215Z,1.49
2023-03-15T20:11:24.447Z,1.47
2023-03-15T20:13:54.155Z,1.43
2023-03-15T20:16:23.950Z,1.39
2023-03-15T20:18:55.223Z,1.36
2023-03-15T20:21:24.779Z,1.32
2023-03-15T20:23:54.178Z,1.29
2023-03-15T20:26:24.630Z,1.26
2023-03-15T20:28:54.054Z,1.21
2023-03-15T20:31:23.396Z,1.21
2023-03-15T20:33:52.857Z,1.20
2023-03-15T20:36:22.368Z,1.15
2023-03-15T20:38:51.732Z,1.12
2023-03-15T20:41:21.261Z,1.09
2023-03-15T20:43:51.084Z,1.10
2023-03-15T20:46:22.200Z,1.04
2023-03-15T20:48:52.213Z,1.00
2023-03-15T20:51:21.900Z,0.96
2023-03-15T20:53:51.344Z,0.96
2023-03-15T20:56:21.378Z,0.90
2023-03-15T20:58:50.761Z,0.88
2023-03-15T21:01:20.230Z,0.87
2023-03-15T21:03:49.620Z,0.88
2023-03-15T21:06:19.013Z,0.87
2023-03-15T21:08:48.710Z,0.83
2023-03-15T21:11:18.014Z,0.84
2023-03-15T21:13:47.660Z,0.83
2023-03-15T21:16:17.665Z,0.84
2023-03-15T21:18:51.241Z,0.84
2023-03-15T21:21:21.226Z,0.84
2023-03-15T21:23:50.505Z,0.82
2023-03-15T21:26:19.871Z,0.81
2023-03-15T21:28:50.102Z,0.77
2023-03-15T21:31:19.619Z,0.78
2023-03-15T21:33:50.754Z,0.78
2023-03-15T21:36:20.354Z,0.77
2023-03-15T21:38:49.729Z,0.78
2023-03-15T21:41:19.018Z,0.77
2023-03-15T21:43:48.326Z,0.75
2023-03-15T21:46:17.719Z,0.71
2023-03-15T21:48:47.244Z,0.71
2023-03-15T21:51:16.875Z,0.71
2023-03-15T21:53:46.152Z,0.71
2023-03-15T21:56:15.491Z,0.71
2023-03-15T21:58:44.826Z,0.70
2023-03-15T22:01:15.232Z,0.70
2023-03-15T22:03:44.689Z,0.68
2023-03-15T22:06:13.984Z,0.63
2023-03-15T22:08:43.571Z,0.61
2023-03-15T22:11:13.221Z,0.60
2023-03-15T22:13:42.593Z,0.61
2023-03-15T22:16:12.863Z,0.61
2023-03-15T22:18:42.138Z,0.60
2023-03-15T22:21:11.479Z,0.61
2023-03-15T22:23:40.753Z,0.60
2023-03-15T22:26:10.478Z,0.61
2023-03-15T22:28:40.418Z,0.59
2023-03-15T22:31:11.580Z,0.59
2023-03-15T22:33:40.936Z,0.60
2023-03-15T22:36:10.864Z,0.59
2023-03-15T22:38:40.764Z,0.59
2023-03-15T22:41:14.213Z,0.57
2023-03-15T22:43:44.925Z,0.55
2023-03-15T22:46:14.859Z,0.54
2023-03-15T22:48:44.211Z,0.53
2023-03-15T22:51:17.127Z,0.52
2023-03-15T22:53:46.397Z,0.53
2023-03-15T22:56:15.679Z,0.53
2023-03-15T22:58:47.186Z,0.52
2023-03-15T23:01:16.514Z,0.51
2023-03-15T23:03:46.472Z,0.50
2023-03-15T23:06:15.782Z,0.50
2023-03-15T23:08:45.413Z,0.48
2023-03-15T23:11:15.827Z,0.47
2023-03-15T23:13:47.814Z,0.45
2023-03-15T23:16:17.634Z,0.42
2023-03-15T23:18:49.094Z,0.40
2023-03-15T23:21:18.531Z,0.39
2023-03-15T23:23:47.861Z,0.37
2023-03-15T23:26:19.622Z,0.37
2023-03-15T23:28:49.953Z,0.36
2023-03-15T23:31:19.395Z,0.35
2023-03-15T23:33:48.640Z,0.34
2023-03-15T23:36:18.878Z,0.33
2023-03-15T23:38:48.999Z,0.32
2023-03-15T23:41:18.390Z,0.31
2023-03-15T23:43:47.686Z,0.31
2023-03-15T23:46:17.192Z,0.29
2023-03-15T23:48:47.228Z,0.27
2023-03-15T23:51:16.635Z,0.26
2023-03-15T23:53:45.945Z,0.23
2023-03-15T23:56:15.769Z,0.23
2023-03-15T23:58:44.992Z,0.21
